sensor_id;sensor_type;location;lat;lon;timestamp;temperature;humidity
54930;DHT22;40833;53.238;6.576;2023-08-20T00:01:28;16.50;99.90
54930;DHT22;40833;53.238;6.576;2023-08-20T00:03:55;16.50;99.90
54930;DHT22;40833;53.238;6.576;2023-08-20T00:06:21;16.50;99.90
54930;DHT22;40833;53.238;6.576;2023-08-20T00:08:48;16.50;99.90
54930;DHT22;40833;53.238;6.576;2023-08-20T00:11:15;16.40;99.90
54930;DHT22;40833;53.238;6.576;2023-08-20T00:13:42;16.50;99.90
54930;DHT22;40833;53.238;6.576;2023-08-20T00:16:08;16.40;99.90
54930;DHT22;40833;53.238;6.576;2023-08-20T00:18:34;16.40;99.90
54930;DHT22;40833;53.238;6.576;2023-08-20T00:21:01;16.40;99.90
54930;DHT22;40833;53.238;6.576;2023-08-20T00:23:27;16.40;99.90
54930;DHT22;40833;53.238;6.576;2023-08-20T00:25:53;16.30;99.90
54930;DHT22;40833;53.238;6.576;2023-08-20T00:28:21;16.30;99.90
54930;DHT22;40833;53.238;6.576;2023-08-20T00:30:47;16.20;99.90
54930;DHT22;40833;53.238;6.576;2023-08-20T00:33:15;16.20;99.90
54930;DHT22;40833;53.238;6.576;2023-08-20T00:35:40;16.10;99.90
54930;DHT22;40833;53.238;6.576;2023-08-20T00:38:06;16.00;99.90
54930;DHT22;40833;53.238;6.576;2023-08-20T00:40:32;16.00;99.90
54930;DHT22;40833;53.238;6.576;2023-08-20T00:42:58;16.00;99.90
54930;DHT22;40833;53.238;6.576;2023-08-20T00:45:24;15.90;99.90
54930;DHT22;40833;53.238;6.576;2023-08-20T00:47:50;15.90;99.90
54930;DHT22;40833;53.238;6.576;2023-08-20T00:50:17;15.90;99.90
54930;DHT22;40833;53.238;6.576;2023-08-20T00:52:43;15.80;99.90
54930;DHT22;40833;53.238;6.576;2023-08-20T00:55:11;15.80;99.90
54930;DHT22;40833;53.238;6.576;2023-08-20T00:57:37;15.80;99.90
54930;DHT22;40833;53.238;6.576;2023-08-20T01:00:04;15.80;99.90
54930;DHT22;40833;53.238;6.576;2023-08-20T01:02:39;15.70;99.90
54930;DHT22;40833;53.238;6.576;2023-08-20T01:05:11;15.70;99.90
54930;DHT22;40833;53.238;6.576;2023-08-20T01:08:07;15.70;99.90
54930;DHT22;40833;53.238;6.576;2023-08-20T01:13:18;15.60;99.90
54930;DHT22;40833;53.238;6.576;2023-08-20T01:15:44;15.50;99.90
54930;DHT22;40833;53.238;6.576;2023-08-20T01:18:09;15.50;99.90
54930;DHT22;40833;53.238;6.576;2023-08-20T01:20:41;15.50;99.90
54930;DHT22;40833;53.238;6.576;2023-08-20T01:26:38;15.40;99.90
54930;DHT22;40833;53.238;6.576;2023-08-20T01:29:06;15.40;99.90
54930;DHT22;40833;53.238;6.576;2023-08-20T01:31:33;15.30;99.90
54930;DHT22;40833;53.238;6.576;2023-08-20T01:34:00;15.30;99.90
54930;DHT22;40833;53.238;6.576;2023-08-20T01:36:26;15.40;99.90
54930;DHT22;40833;53.238;6.576;2023-08-20T01:38:52;15.30;99.90
54930;DHT22;40833;53.238;6.576;2023-08-20T01:41:17;15.30;99.90
54930;DHT22;40833;53.238;6.576;2023-08-20T01:43:43;15.30;99.90
54930;DHT22;40833;53.238;6.576;2023-08-20T01:46:09;15.20;99.90
54930;DHT22;40833;53.238;6.576;2023-08-20T01:48:35;15.20;99.90
54930;DHT22;40833;53.238;6.576;2023-08-20T01:51:01;15.60;99.90
54930;DHT22;40833;53.238;6.576;2023-08-20T01:53:26;15.30;99.90
54930;DHT22;40833;53.238;6.576;2023-08-20T01:55:52;15.30;99.90
54930;DHT22;40833;53.238;6.576;2023-08-20T01:58:18;15.40;99.90
54930;DHT22;40833;53.238;6.576;2023-08-20T02:00:45;15.40;99.90
54930;DHT22;40833;53.238;6.576;2023-08-20T02:03:11;15.50;99.90
54930;DHT22;40833;53.238;6.576;2023-08-20T02:05:37;15.40;99.90
54930;DHT22;40833;53.238;6.576;2023-08-20T02:08:04;15.40;99.90
54930;DHT22;40833;53.238;6.576;2023-08-20T02:10:29;15.40;99.90
54930;DHT22;40833;53.238;6.576;2023-08-20T02:12:55;15.40;99.90
54930;DHT22;40833;53.238;6.576;2023-08-20T02:15:21;15.50;99.90
54930;DHT22;40833;53.238;6.576;2023-08-20T02:17:46;15.40;99.90
54930;DHT22;40833;53.238;6.576;2023-08-20T02:20:12;15.40;99.90
54930;DHT22;40833;53.238;6.576;2023-08-20T02:22:38;15.40;99.90
54930;DHT22;40833;53.238;6.576;2023-08-20T02:25:04;15.50;99.90
54930;DHT22;40833;53.238;6.576;2023-08-20T02:27:29;15.50;99.90
54930;DHT22;40833;53.238;6.576;2023-08-20T02:29:55;15.50;99.90
54930;DHT22;40833;53.238;6.576;2023-08-20T02:32:21;15.00;99.90
54930;DHT22;40833;53.238;6.576;2023-08-20T02:34:54;15.50;99.90
54930;DHT22;40833;53.238;6.576;2023-08-20T02:37:20;15.50;99.90
54930;DHT22;40833;53.238;6.576;2023-08-20T02:39:45;15.40;99.90
54930;DHT22;40833;53.238;6.576;2023-08-20T02:42:11;15.40;99.90
54930;DHT22;40833;53.238;6.576;2023-08-20T02:44:37;15.30;99.90
54930;DHT22;40833;53.238;6.576;2023-08-20T02:47:02;15.40;99.90
54930;DHT22;40833;53.238;6.576;2023-08-20T02:49:28;15.30;99.90
54930;DHT22;40833;53.238;6.576;2023-08-20T02:51:54;15.30;99.90
54930;DHT22;40833;53.238;6.576;2023-08-20T02:54:19;15.20;99.90
54930;DHT22;40833;53.238;6.576;2023-08-20T02:56:45;15.30;99.90
54930;DHT22;40833;53.238;6.576;2023-08-20T02:59:11;15.20;99.90
54930;DHT22;40833;53.238;6.576;2023-08-20T03:01:36;15.20;99.90
54930;DHT22;40833;53.238;6.576;2023-08-20T03:04:02;15.20;99.90
54930;DHT22;40833;53.238;6.576;2023-08-20T03:06:28;15.10;99.90
54930;DHT22;40833;53.238;6.576;2023-08-20T03:08:54;15.10;99.90
54930;DHT22;40833;53.238;6.576;2023-08-20T03:11:19;15.10;99.90
54930;DHT22;40833;53.238;6.576;2023-08-20T03:13:45;15.10;99.90
54930;DHT22;40833;53.238;6.576;2023-08-20T03:16:11;15.10;99.90
54930;DHT22;40833;53.238;6.576;2023-08-20T03:18:36;15.20;99.90
54930;DHT22;40833;53.238;6.576;2023-08-20T03:21:02;15.20;99.90
54930;DHT22;40833;53.238;6.576;2023-08-20T03:23:29;15.20;99.90
54930;DHT22;40833;53.238;6.576;2023-08-20T03:25:57;15.10;99.90
54930;DHT22;40833;53.238;6.576;2023-08-20T03:28:24;15.20;99.90
54930;DHT22;40833;53.238;6.576;2023-08-20T03:30:49;15.20;99.90
54930;DHT22;40833;53.238;6.576;2023-08-20T03:33:15;15.30;99.90
54930;DHT22;40833;53.238;6.576;2023-08-20T03:35:42;15.50;99.90
54930;DHT22;40833;53.238;6.576;2023-08-20T03:38:08;15.30;99.90
54930;DHT22;40833;53.238;6.576;2023-08-20T03:40:34;15.30;99.90
54930;DHT22;40833;53.238;6.576;2023-08-20T03:42:59;15.20;99.90
54930;DHT22;40833;53.238;6.576;2023-08-20T03:45:26;15.30;99.90
54930;DHT22;40833;53.238;6.576;2023-08-20T03:47:51;15.30;99.90
54930;DHT22;40833;53.238;6.576;2023-08-20T03:50:17;15.40;99.90
54930;DHT22;40833;53.238;6.576;2023-08-20T03:52:43;15.30;99.90
54930;DHT22;40833;53.238;6.576;2023-08-20T03:55:08;15.40;99.90
54930;DHT22;40833;53.238;6.576;2023-08-20T03:57:34;15.40;99.90
54930;DHT22;40833;53.238;6.576;2023-08-20T04:00:00;15.30;99.90
54930;DHT22;40833;53.238;6.576;2023-08-20T04:04:51;15.20;99.90
54930;DHT22;40833;53.238;6.576;2023-08-20T04:07:18;15.20;99.90
54930;DHT22;40833;53.238;6.576;2023-08-20T04:09:43;15.30;99.90
54930;DHT22;40833;53.238;6.576;2023-08-20T04:12:09;15.30;99.90
54930;DHT22;40833;53.238;6.576;2023-08-20T04:14:35;15.30;99.90
54930;DHT22;40833;53.238;6.576;2023-08-20T04:17:00;15.30;99.90
54930;DHT22;40833;53.238;6.576;2023-08-20T04:19:26;15.30;99.90
54930;DHT22;40833;53.238;6.576;2023-08-20T04:21:52;15.30;99.90
54930;DHT22;40833;53.238;6.576;2023-08-20T04:24:17;15.30;99.90
54930;DHT22;40833;53.238;6.576;2023-08-20T04:26:43;15.30;99.90
54930;DHT22;40833;53.238;6.576;2023-08-20T04:29:09;14.90;99.90
54930;DHT22;40833;53.238;6.576;2023-08-20T04:31:35;15.30;99.90
54930;DHT22;40833;53.238;6.576;2023-08-20T04:36:27;15.30;99.90
54930;DHT22;40833;53.238;6.576;2023-08-20T04:38:52;15.30;99.90
54930;DHT22;40833;53.238;6.576;2023-08-20T04:46:10;15.10;99.90
54930;DHT22;40833;53.238;6.576;2023-08-20T04:48:36;15.30;99.90
54930;DHT22;40833;53.238;6.576;2023-08-20T04:51:01;15.30;99.90
54930;DHT22;40833;53.238;6.576;2023-08-20T04:53:27;15.30;99.90
54930;DHT22;40833;53.238;6.576;2023-08-20T04:55:53;15.30;99.90
54930;DHT22;40833;53.238;6.576;2023-08-20T04:58:18;15.10;99.90
54930;DHT22;40833;53.238;6.576;2023-08-20T05:00:44;15.40;99.90
54930;DHT22;40833;53.238;6.576;2023-08-20T05:03:10;15.40;99.90
54930;DHT22;40833;53.238;6.576;2023-08-20T05:10:28;15.50;99.90
54930;DHT22;40833;53.238;6.576;2023-08-20T05:12:53;15.50;99.90
54930;DHT22;40833;53.238;6.576;2023-08-20T05:15:19;15.50;99.90
54930;DHT22;40833;53.238;6.576;2023-08-20T05:22:37;15.30;99.90
54930;DHT22;40833;53.238;6.576;2023-08-20T05:37:13;15.70;99.90
54930;DHT22;40833;53.238;6.576;2023-08-20T05:39:43;15.70;99.90
54930;DHT22;40833;53.238;6.576;2023-08-20T05:42:09;15.70;99.90
54930;DHT22;40833;53.238;6.576;2023-08-20T05:44:35;15.80;99.90
54930;DHT22;40833;53.238;6.576;2023-08-20T05:47:01;15.80;99.90
54930;DHT22;40833;53.238;6.576;2023-08-20T05:49:27;15.80;99.90
54930;DHT22;40833;53.238;6.576;2023-08-20T05:51:53;15.80;99.90
54930;DHT22;40833;53.238;6.576;2023-08-20T05:54:18;15.80;99.90
54930;DHT22;40833;53.238;6.576;2023-08-20T05:56:44;15.90;99.90
54930;DHT22;40833;53.238;6.576;2023-08-20T05:59:10;15.90;99.90
54930;DHT22;40833;53.238;6.576;2023-08-20T06:01:35;16.00;99.90
54930;DHT22;40833;53.238;6.576;2023-08-20T06:04:01;16.00;99.90
54930;DHT22;40833;53.238;6.576;2023-08-20T06:06:27;16.10;99.90
54930;DHT22;40833;53.238;6.576;2023-08-20T06:08:53;16.10;99.90
54930;DHT22;40833;53.238;6.576;2023-08-20T06:11:20;16.20;99.90
54930;DHT22;40833;53.238;6.576;2023-08-20T06:13:45;16.30;99.90
54930;DHT22;40833;53.238;6.576;2023-08-20T06:16:11;16.30;99.90
54930;DHT22;40833;53.238;6.576;2023-08-20T06:18:37;16.40;99.90
54930;DHT22;40833;53.238;6.576;2023-08-20T06:21:03;16.40;99.90
54930;DHT22;40833;53.238;6.576;2023-08-20T06:23:29;16.50;99.90
54930;DHT22;40833;53.238;6.576;2023-08-20T06:25:54;16.60;99.90
54930;DHT22;40833;53.238;6.576;2023-08-20T06:28:20;16.60;99.90
54930;DHT22;40833;53.238;6.576;2023-08-20T06:30:46;16.70;99.90
54930;DHT22;40833;53.238;6.576;2023-08-20T06:33:12;16.70;99.90
54930;DHT22;40833;53.238;6.576;2023-08-20T06:35:38;16.80;99.90
54930;DHT22;40833;53.238;6.576;2023-08-20T06:38:04;16.80;99.90
54930;DHT22;40833;53.238;6.576;2023-08-20T06:40:30;16.90;99.90
54930;DHT22;40833;53.238;6.576;2023-08-20T06:42:56;17.00;99.90
54930;DHT22;40833;53.238;6.576;2023-08-20T06:45:21;17.00;99.90
54930;DHT22;40833;53.238;6.576;2023-08-20T06:47:47;17.10;99.90
54930;DHT22;40833;53.238;6.576;2023-08-20T06:50:13;17.20;99.90
54930;DHT22;40833;53.238;6.576;2023-08-20T06:52:38;17.20;99.90
54930;DHT22;40833;53.238;6.576;2023-08-20T06:55:04;17.30;99.90
54930;DHT22;40833;53.238;6.576;2023-08-20T06:57:30;17.40;99.90
54930;DHT22;40833;53.238;6.576;2023-08-20T06:59:55;17.40;99.90
54930;DHT22;40833;53.238;6.576;2023-08-20T07:02:21;17.50;99.90
54930;DHT22;40833;53.238;6.576;2023-08-20T07:04:47;17.50;99.90
54930;DHT22;40833;53.238;6.576;2023-08-20T07:07:12;17.60;99.90
54930;DHT22;40833;53.238;6.576;2023-08-20T07:09:40;17.60;99.90
54930;DHT22;40833;53.238;6.576;2023-08-20T07:12:06;17.70;99.90
54930;DHT22;40833;53.238;6.576;2023-08-20T07:14:32;17.80;99.90
54930;DHT22;40833;53.238;6.576;2023-08-20T07:16:57;17.80;99.90
54930;DHT22;40833;53.238;6.576;2023-08-20T07:19:25;17.90;99.90
54930;DHT22;40833;53.238;6.576;2023-08-20T07:21:50;18.00;99.90
54930;DHT22;40833;53.238;6.576;2023-08-20T07:24:16;18.00;99.90
54930;DHT22;40833;53.238;6.576;2023-08-20T07:26:42;18.00;99.90
54930;DHT22;40833;53.238;6.576;2023-08-20T07:29:07;18.10;99.90
54930;DHT22;40833;53.238;6.576;2023-08-20T07:31:33;18.20;99.90
54930;DHT22;40833;53.238;6.576;2023-08-20T07:34:00;18.30;99.90
54930;DHT22;40833;53.238;6.576;2023-08-20T07:36:26;18.30;99.90
54930;DHT22;40833;53.238;6.576;2023-08-20T07:38:53;18.40;99.90
54930;DHT22;40833;53.238;6.576;2023-08-20T07:41:20;18.50;99.90
54930;DHT22;40833;53.238;6.576;2023-08-20T07:43:46;18.60;99.90
54930;DHT22;40833;53.238;6.576;2023-08-20T07:46:12;18.60;99.90
54930;DHT22;40833;53.238;6.576;2023-08-20T07:48:38;18.70;99.90
54930;DHT22;40833;53.238;6.576;2023-08-20T07:51:04;18.70;99.90
54930;DHT22;40833;53.238;6.576;2023-08-20T07:53:31;18.80;99.90
54930;DHT22;40833;53.238;6.576;2023-08-20T07:55:57;18.90;99.90
54930;DHT22;40833;53.238;6.576;2023-08-20T07:58:23;18.90;99.90
54930;DHT22;40833;53.238;6.576;2023-08-20T08:00:48;19.00;99.90
54930;DHT22;40833;53.238;6.576;2023-08-20T08:03:14;19.10;99.90
54930;DHT22;40833;53.238;6.576;2023-08-20T08:05:50;19.10;99.90
54930;DHT22;40833;53.238;6.576;2023-08-20T08:08:16;19.10;99.90
54930;DHT22;40833;53.238;6.576;2023-08-20T08:10:43;19.20;99.90
54930;DHT22;40833;53.238;6.576;2023-08-20T08:13:19;19.30;99.90
54930;DHT22;40833;53.238;6.576;2023-08-20T08:15:45;19.30;99.90
54930;DHT22;40833;53.238;6.576;2023-08-20T08:18:11;19.40;99.90
54930;DHT22;40833;53.238;6.576;2023-08-20T08:20:37;19.40;99.90
54930;DHT22;40833;53.238;6.576;2023-08-20T08:23:03;19.50;99.90
54930;DHT22;40833;53.238;6.576;2023-08-20T08:25:29;19.60;99.90
54930;DHT22;40833;53.238;6.576;2023-08-20T08:27:55;19.70;99.90
54930;DHT22;40833;53.238;6.576;2023-08-20T08:30:20;19.80;99.90
54930;DHT22;40833;53.238;6.576;2023-08-20T08:32:46;19.80;99.90
54930;DHT22;40833;53.238;6.576;2023-08-20T08:35:12;19.90;99.90
54930;DHT22;40833;53.238;6.576;2023-08-20T08:37:38;20.00;99.90
54930;DHT22;40833;53.238;6.576;2023-08-20T08:40:04;20.10;99.90
54930;DHT22;40833;53.238;6.576;2023-08-20T08:42:35;20.10;99.90
54930;DHT22;40833;53.238;6.576;2023-08-20T08:45:01;20.30;99.90
54930;DHT22;40833;53.238;6.576;2023-08-20T08:47:27;20.30;99.90
54930;DHT22;40833;53.238;6.576;2023-08-20T08:49:55;20.40;99.90
54930;DHT22;40833;53.238;6.576;2023-08-20T08:52:23;20.50;99.90
54930;DHT22;40833;53.238;6.576;2023-08-20T08:54:48;20.60;99.90
54930;DHT22;40833;53.238;6.576;2023-08-20T08:57:15;20.70;99.90
54930;DHT22;40833;53.238;6.576;2023-08-20T08:59:41;20.80;99.90
54930;DHT22;40833;53.238;6.576;2023-08-20T09:02:09;20.90;99.90
54930;DHT22;40833;53.238;6.576;2023-08-20T09:04:38;20.90;99.90
54930;DHT22;40833;53.238;6.576;2023-08-20T09:07:04;21.30;99.90
54930;DHT22;40833;53.238;6.576;2023-08-20T09:09:30;21.10;99.90
54930;DHT22;40833;53.238;6.576;2023-08-20T09:11:56;21.20;99.90
54930;DHT22;40833;53.238;6.576;2023-08-20T09:14:23;21.20;99.90
54930;DHT22;40833;53.238;6.576;2023-08-20T09:16:57;21.30;99.90
54930;DHT22;40833;53.238;6.576;2023-08-20T09:19:23;21.40;99.90
54930;DHT22;40833;53.238;6.576;2023-08-20T09:21:48;21.50;99.90
54930;DHT22;40833;53.238;6.576;2023-08-20T09:24:15;21.60;99.90
54930;DHT22;40833;53.238;6.576;2023-08-20T09:26:45;21.60;99.90
54930;DHT22;40833;53.238;6.576;2023-08-20T09:29:11;21.70;99.90
54930;DHT22;40833;53.238;6.576;2023-08-20T09:31:39;21.80;99.90
54930;DHT22;40833;53.238;6.576;2023-08-20T09:34:05;21.80;99.90
54930;DHT22;40833;53.238;6.576;2023-08-20T09:36:33;21.90;99.90
54930;DHT22;40833;53.238;6.576;2023-08-20T09:39:00;21.90;99.90
54930;DHT22;40833;53.238;6.576;2023-08-20T09:41:26;21.90;99.90
54930;DHT22;40833;53.238;6.576;2023-08-20T09:43:56;22.00;99.90
54930;DHT22;40833;53.238;6.576;2023-08-20T09:46:24;22.10;99.90
54930;DHT22;40833;53.238;6.576;2023-08-20T09:48:51;22.20;99.90
54930;DHT22;40833;53.238;6.576;2023-08-20T09:51:22;22.20;99.90
54930;DHT22;40833;53.238;6.576;2023-08-20T09:53:56;22.30;99.90
54930;DHT22;40833;53.238;6.576;2023-08-20T09:56:30;22.30;99.90
54930;DHT22;40833;53.238;6.576;2023-08-20T09:58:57;22.30;99.90
54930;DHT22;40833;53.238;6.576;2023-08-20T10:01:25;22.30;99.90
54930;DHT22;40833;53.238;6.576;2023-08-20T10:03:51;22.30;99.90
54930;DHT22;40833;53.238;6.576;2023-08-20T10:06:18;22.40;99.90
54930;DHT22;40833;53.238;6.576;2023-08-20T10:08:45;22.40;99.90
54930;DHT22;40833;53.238;6.576;2023-08-20T10:11:12;22.50;99.90
54930;DHT22;40833;53.238;6.576;2023-08-20T10:13:38;22.60;99.90
54930;DHT22;40833;53.238;6.576;2023-08-20T10:16:04;22.60;99.90
54930;DHT22;40833;53.238;6.576;2023-08-20T10:18:30;22.60;99.90
54930;DHT22;40833;53.238;6.576;2023-08-20T10:20:58;22.70;99.90
54930;DHT22;40833;53.238;6.576;2023-08-20T10:23:25;22.80;99.90
54930;DHT22;40833;53.238;6.576;2023-08-20T10:25:52;22.90;99.90
54930;DHT22;40833;53.238;6.576;2023-08-20T10:28:25;23.00;99.90
54930;DHT22;40833;53.238;6.576;2023-08-20T10:31:04;23.00;99.90
54930;DHT22;40833;53.238;6.576;2023-08-20T10:33:38;23.00;99.90
54930;DHT22;40833;53.238;6.576;2023-08-20T10:36:15;23.10;99.90
54930;DHT22;40833;53.238;6.576;2023-08-20T10:38:45;23.10;99.90
54930;DHT22;40833;53.238;6.576;2023-08-20T10:41:11;23.20;99.90
54930;DHT22;40833;53.238;6.576;2023-08-20T10:43:46;23.30;99.90
54930;DHT22;40833;53.238;6.576;2023-08-20T10:46:18;23.40;99.90
54930;DHT22;40833;53.238;6.576;2023-08-20T10:51:24;23.50;99.90
54930;DHT22;40833;53.238;6.576;2023-08-20T10:56:57;23.60;99.90
54930;DHT22;40833;53.238;6.576;2023-08-20T10:59:29;23.60;99.90
54930;DHT22;40833;53.238;6.576;2023-08-20T11:02:00;23.60;99.90
54930;DHT22;40833;53.238;6.576;2023-08-20T11:04:30;23.70;99.90
54930;DHT22;40833;53.238;6.576;2023-08-20T11:06:58;23.70;99.90
54930;DHT22;40833;53.238;6.576;2023-08-20T11:09:26;23.80;99.90
54930;DHT22;40833;53.238;6.576;2023-08-20T11:11:52;23.90;99.90
54930;DHT22;40833;53.238;6.576;2023-08-20T11:14:19;24.00;99.90
54930;DHT22;40833;53.238;6.576;2023-08-20T11:16:46;24.10;99.90
54930;DHT22;40833;53.238;6.576;2023-08-20T11:19:13;24.10;99.90
54930;DHT22;40833;53.238;6.576;2023-08-20T11:21:43;24.20;99.90
54930;DHT22;40833;53.238;6.576;2023-08-20T11:24:10;24.30;99.90
54930;DHT22;40833;53.238;6.576;2023-08-20T11:26:38;24.30;99.90
54930;DHT22;40833;53.238;6.576;2023-08-20T11:31:34;24.40;99.90
54930;DHT22;40833;53.238;6.576;2023-08-20T11:34:02;24.50;99.90
54930;DHT22;40833;53.238;6.576;2023-08-20T11:36:28;24.60;99.90
54930;DHT22;40833;53.238;6.576;2023-08-20T11:38:54;24.70;99.90
54930;DHT22;40833;53.238;6.576;2023-08-20T11:41:21;24.80;99.90
54930;DHT22;40833;53.238;6.576;2023-08-20T11:43:47;24.90;99.90
54930;DHT22;40833;53.238;6.576;2023-08-20T11:46:14;24.80;99.90
54930;DHT22;40833;53.238;6.576;2023-08-20T11:49:06;24.70;99.90
54930;DHT22;40833;53.238;6.576;2023-08-20T11:54:02;24.40;99.90
54930;DHT22;40833;53.238;6.576;2023-08-20T11:56:29;24.40;99.90
54930;DHT22;40833;53.238;6.576;2023-08-20T11:58:59;24.60;99.90
54930;DHT22;40833;53.238;6.576;2023-08-20T12:01:26;24.60;99.90
54930;DHT22;40833;53.238;6.576;2023-08-20T12:04:09;24.60;99.90
54930;DHT22;40833;53.238;6.576;2023-08-20T12:06:36;24.70;99.90
54930;DHT22;40833;53.238;6.576;2023-08-20T12:09:18;24.90;99.90
54930;DHT22;40833;53.238;6.576;2023-08-20T12:11:52;25.10;99.90
54930;DHT22;40833;53.238;6.576;2023-08-20T12:14:19;25.30;99.90
54930;DHT22;40833;53.238;6.576;2023-08-20T12:16:45;25.50;99.90
54930;DHT22;40833;53.238;6.576;2023-08-20T12:19:11;25.50;99.90
54930;DHT22;40833;53.238;6.576;2023-08-20T12:21:37;25.60;99.90
54930;DHT22;40833;53.238;6.576;2023-08-20T12:24:02;25.60;99.90
54930;DHT22;40833;53.238;6.576;2023-08-20T12:26:30;25.80;99.90
54930;DHT22;40833;53.238;6.576;2023-08-20T12:28:55;25.90;99.90
54930;DHT22;40833;53.238;6.576;2023-08-20T12:31:21;26.00;99.90
54930;DHT22;40833;53.238;6.576;2023-08-20T12:33:47;26.00;99.90
54930;DHT22;40833;53.238;6.576;2023-08-20T12:36:12;26.00;99.90
54930;DHT22;40833;53.238;6.576;2023-08-20T12:38:38;26.00;99.90
54930;DHT22;40833;53.238;6.576;2023-08-20T12:41:04;26.10;99.90
54930;DHT22;40833;53.238;6.576;2023-08-20T12:43:30;26.10;99.90
54930;DHT22;40833;53.238;6.576;2023-08-20T12:45:56;26.10;99.90
54930;DHT22;40833;53.238;6.576;2023-08-20T12:48:22;26.20;99.90
54930;DHT22;40833;53.238;6.576;2023-08-20T12:50:47;26.40;99.90
54930;DHT22;40833;53.238;6.576;2023-08-20T12:53:13;26.40;99.90
54930;DHT22;40833;53.238;6.576;2023-08-20T12:55:39;26.40;99.90
54930;DHT22;40833;53.238;6.576;2023-08-20T12:58:05;26.30;99.90
54930;DHT22;40833;53.238;6.576;2023-08-20T13:00:30;26.20;99.90
54930;DHT22;40833;53.238;6.576;2023-08-20T13:02:56;26.00;99.90
54930;DHT22;40833;53.238;6.576;2023-08-20T13:05:23;25.90;99.90
54930;DHT22;40833;53.238;6.576;2023-08-20T13:07:50;26.00;99.90
54930;DHT22;40833;53.238;6.576;2023-08-20T13:10:16;26.20;99.90
54930;DHT22;40833;53.238;6.576;2023-08-20T13:12:51;26.20;99.90
54930;DHT22;40833;53.238;6.576;2023-08-20T13:15:17;26.00;99.90
54930;DHT22;40833;53.238;6.576;2023-08-20T13:17:46;26.00;99.90
54930;DHT22;40833;53.238;6.576;2023-08-20T13:20:12;26.10;99.90
54930;DHT22;40833;53.238;6.576;2023-08-20T13:22:37;26.40;99.90
54930;DHT22;40833;53.238;6.576;2023-08-20T13:25:03;26.60;99.90
54930;DHT22;40833;53.238;6.576;2023-08-20T13:27:30;26.70;99.90
54930;DHT22;40833;53.238;6.576;2023-08-20T13:29:56;26.50;99.90
54930;DHT22;40833;53.238;6.576;2023-08-20T13:32:22;26.30;99.90
54930;DHT22;40833;53.238;6.576;2023-08-20T13:34:51;26.30;99.90
54930;DHT22;40833;53.238;6.576;2023-08-20T13:37:17;26.50;99.90
54930;DHT22;40833;53.238;6.576;2023-08-20T13:39:43;26.60;99.90
54930;DHT22;40833;53.238;6.576;2023-08-20T13:42:09;26.60;99.90
54930;DHT22;40833;53.238;6.576;2023-08-20T13:44:34;26.40;99.90
54930;DHT22;40833;53.238;6.576;2023-08-20T13:47:00;26.50;99.90
54930;DHT22;40833;53.238;6.576;2023-08-20T13:49:26;26.80;99.90
54930;DHT22;40833;53.238;6.576;2023-08-20T13:51:52;27.10;99.90
54930;DHT22;40833;53.238;6.576;2023-08-20T13:54:17;27.20;99.90
54930;DHT22;40833;53.238;6.576;2023-08-20T13:56:43;27.40;99.90
54930;DHT22;40833;53.238;6.576;2023-08-20T13:59:12;27.50;99.90
54930;DHT22;40833;53.238;6.576;2023-08-20T14:01:37;27.60;99.90
54930;DHT22;40833;53.238;6.576;2023-08-20T14:04:03;27.60;99.90
54930;DHT22;40833;53.238;6.576;2023-08-20T14:06:29;27.70;99.90
54930;DHT22;40833;53.238;6.576;2023-08-20T14:08:55;27.80;99.90
54930;DHT22;40833;53.238;6.576;2023-08-20T14:11:21;27.50;99.90
54930;DHT22;40833;53.238;6.576;2023-08-20T14:13:48;27.40;99.90
54930;DHT22;40833;53.238;6.576;2023-08-20T14:16:14;27.50;99.90
54930;DHT22;40833;53.238;6.576;2023-08-20T14:18:40;27.70;99.90
54930;DHT22;40833;53.238;6.576;2023-08-20T14:21:06;27.90;99.90
54930;DHT22;40833;53.238;6.576;2023-08-20T14:23:32;27.80;99.90
54930;DHT22;40833;53.238;6.576;2023-08-20T14:25:57;27.90;99.90
54930;DHT22;40833;53.238;6.576;2023-08-20T14:28:23;28.00;99.90
54930;DHT22;40833;53.238;6.576;2023-08-20T14:30:49;28.10;99.90
54930;DHT22;40833;53.238;6.576;2023-08-20T14:33:16;28.20;99.90
54930;DHT22;40833;53.238;6.576;2023-08-20T14:35:42;28.00;99.90
54930;DHT22;40833;53.238;6.576;2023-08-20T14:38:08;27.80;99.90
54930;DHT22;40833;53.238;6.576;2023-08-20T14:40:37;27.80;99.90
54930;DHT22;40833;53.238;6.576;2023-08-20T14:43:06;27.80;99.90
54930;DHT22;40833;53.238;6.576;2023-08-20T14:45:32;27.80;99.90
54930;DHT22;40833;53.238;6.576;2023-08-20T14:47:57;27.90;99.90
54930;DHT22;40833;53.238;6.576;2023-08-20T14:50:23;27.80;99.90
54930;DHT22;40833;53.238;6.576;2023-08-20T14:52:49;27.70;99.90
54930;DHT22;40833;53.238;6.576;2023-08-20T14:55:20;28.00;99.90
54930;DHT22;40833;53.238;6.576;2023-08-20T14:57:46;28.30;99.90
54930;DHT22;40833;53.238;6.576;2023-08-20T15:00:13;28.40;99.90
54930;DHT22;40833;53.238;6.576;2023-08-20T15:02:40;28.20;99.40
54930;DHT22;40833;53.238;6.576;2023-08-20T15:05:07;28.00;99.30
54930;DHT22;40833;53.238;6.576;2023-08-20T15:07:33;27.80;99.50
54930;DHT22;40833;53.238;6.576;2023-08-20T15:09:58;27.60;99.70
54930;DHT22;40833;53.238;6.576;2023-08-20T15:12:24;27.40;99.40
54930;DHT22;40833;53.238;6.576;2023-08-20T15:14:50;27.30;99.40
54930;DHT22;40833;53.238;6.576;2023-08-20T15:17:15;27.20;99.60
54930;DHT22;40833;53.238;6.576;2023-08-20T15:19:41;27.60;99.90
54930;DHT22;40833;53.238;6.576;2023-08-20T15:22:07;28.20;99.80
54930;DHT22;40833;53.238;6.576;2023-08-20T15:24:32;28.40;99.20
54930;DHT22;40833;53.238;6.576;2023-08-20T15:26:58;28.60;99.10
54930;DHT22;40833;53.238;6.576;2023-08-20T15:29:24;29.10;99.30
54930;DHT22;40833;53.238;6.576;2023-08-20T15:31:49;29.70;98.40
54930;DHT22;40833;53.238;6.576;2023-08-20T15:34:17;30.00;97.60
54930;DHT22;40833;53.238;6.576;2023-08-20T15:36:43;30.30;97.50
54930;DHT22;40833;53.238;6.576;2023-08-20T15:39:09;30.40;97.30
54930;DHT22;40833;53.238;6.576;2023-08-20T15:41:35;30.60;96.30
54930;DHT22;40833;53.238;6.576;2023-08-20T15:44:01;30.80;96.20
54930;DHT22;40833;53.238;6.576;2023-08-20T15:46:26;30.50;95.90
54930;DHT22;40833;53.238;6.576;2023-08-20T15:48:53;30.60;96.20
54930;DHT22;40833;53.238;6.576;2023-08-20T15:51:19;30.80;95.50
54930;DHT22;40833;53.238;6.576;2023-08-20T15:53:45;30.60;95.00
54930;DHT22;40833;53.238;6.576;2023-08-20T15:56:11;30.60;95.90
54930;DHT22;40833;53.238;6.576;2023-08-20T15:58:37;30.70;95.40
54930;DHT22;40833;53.238;6.576;2023-08-20T16:01:04;31.00;95.00
54930;DHT22;40833;53.238;6.576;2023-08-20T16:03:29;31.40;94.60
54930;DHT22;40833;53.238;6.576;2023-08-20T16:05:55;31.40;93.80
54930;DHT22;40833;53.238;6.576;2023-08-20T16:08:21;31.10;93.20
54930;DHT22;40833;53.238;6.576;2023-08-20T16:10:47;31.30;93.50
54930;DHT22;40833;53.238;6.576;2023-08-20T16:13:13;31.50;93.40
54930;DHT22;40833;53.238;6.576;2023-08-20T16:15:38;31.80;93.20